Time;durP1;ratioP1;P1;durP2;ratioP2;P2;SDS_P1;SDS_P2;PMS_P1;PMS_P2;Temp;Humidity;BMP_temperature;BMP_pressure;BME280_temperature;BME280_humidity;BME280_pressure;Samples;Min_cycle;Max_cycle;Signal;HPM_P1;HPM_P2
2022/03/05 00:01:56;;;;;;;1.92;1.27;;;;;;;-148.93;100.00;62180.91;20766351;28;20476;-86
2022/03/05 00:11:59;;;;;;;1.60;1.17;;;;;;;-148.93;100.00;62180.91;20797244;28;20037;-85
2022/03/05 00:22:03;;;;;;;1.52;1.30;;;;;;;-148.93;100.00;62180.91;20779854;28;20048;-86
2022/03/05 00:32:10;;;;;;;1.20;1.10;;;;;;;-148.93;100.00;62180.91;20762086;28;20391;-85
2022/03/05 00:42:13;;;;;;;2.08;1.40;;;;;;;-148.93;100.00;62180.91;20793154;28;20083;-85
2022/03/05 00:52:18;;;;;;;1.67;1.27;;;;;;;-148.93;100.00;62180.91;20793403;28;20049;-85
2022/03/05 01:02:21;;;;;;;1.40;1.30;;;;;;;-148.93;100.00;62180.91;20760753;28;20045;-85
2022/03/05 01:12:25;;;;;;;1.30;1.20;;;;;;;-148.93;100.00;62180.91;20775643;28;20050;-85
2022/03/05 01:22:29;;;;;;;1.75;1.40;;;;;;;-148.93;100.00;62180.91;20777521;28;20045;-86
2022/03/05 01:32:34;;;;;;;1.42;1.15;;;;;;;-148.93;100.00;62180.91;20791272;28;20128;-85
2022/03/05 01:42:38;;;;;;;1.30;1.08;;;;;;;-148.93;100.00;62180.91;20790477;28;20124;-86
2022/03/05 01:52:40;;;;;;;1.20;1.10;;;;;;;-148.93;100.00;62180.91;20789040;28;20053;-86
2022/03/05 02:02:45;;;;;;;1.60;1.30;;;;;;;-148.93;100.00;62180.91;20772871;28;20442;-85
2022/03/05 02:12:47;;;;;;;1.50;1.27;;;;;;;-148.93;100.00;62180.91;20772549;28;20041;-85
2022/03/05 02:22:51;;;;;;;1.30;1.20;;;;;;;-148.93;100.00;62180.91;20787871;28;20041;-85
2022/03/05 02:32:55;;;;;;;1.38;1.17;;;;;;;-148.93;100.00;62180.91;20786644;28;20055;-85
2022/03/05 02:42:58;;;;;;;1.38;1.05;;;;;;;-148.93;100.00;62180.91;20768930;28;20046;-86
2022/03/05 02:53:16;;;;;;;1.20;1.10;;;;;;;-148.93;100.00;62180.91;20788827;28;20041;-86
2022/03/05 03:03:22;;;;;;;1.20;1.10;;;;;;;-148.93;100.00;62180.91;20769677;28;20092;-85
2022/03/05 03:13:28;;;;;;;1.38;1.20;;;;;;;-148.93;100.00;62180.91;20800383;28;20132;-86
2022/03/05 03:23:30;;;;;;;1.30;1.15;;;;;;;-148.93;100.00;62180.91;20782317;28;20053;-84
2022/03/05 03:33:33;;;;;;;1.25;1.10;;;;;;;-148.93;100.00;62180.91;20781010;28;20441;-85
2022/03/05 03:43:35;;;;;;;1.98;1.15;;;;;;;-148.93;100.00;62180.91;20780545;28;20061;-86
2022/03/05 03:53:38;;;;;;;1.45;1.13;;;;;;;-148.93;100.00;62180.91;20779909;28;20060;-85
2022/03/05 04:03:43;;;;;;;1.27;1.10;;;;;;;-148.93;100.00;62180.91;20764625;28;20113;-81
2022/03/05 04:13:48;;;;;;;1.40;1.25;;;;;;;-148.93;100.00;62180.91;20764612;28;20052;-86
2022/03/05 04:23:50;;;;;;;1.85;1.17;;;;;;;-148.93;100.00;62180.91;20763392;28;20069;-84
2022/03/05 04:33:53;;;;;;;1.67;1.13;;;;;;;-148.93;100.00;62180.91;20778762;28;20447;-86
2022/03/05 04:43:55;;;;;;;1.60;0.90;;;;;;;-148.93;100.00;62180.91;20779430;28;20037;-85
2022/03/05 04:53:59;;;;;;;1.30;1.10;;;;;;;-148.93;100.00;62180.91;20779311;28;20064;-86
2022/03/05 05:04:01;;;;;;;1.83;1.30;;;;;;;-148.93;100.00;62180.91;20778319;28;20047;-87
2022/03/05 05:14:04;;;;;;;1.10;1.00;;;;;;;-148.93;100.00;62180.91;20794694;28;20045;-86
2022/03/05 05:24:07;;;;;;;1.40;1.30;;;;;;;-148.93;100.00;62180.91;20794171;28;20042;-88
2022/03/05 05:34:10;;;;;;;3.55;1.20;;;;;;;-148.93;100.00;62180.91;20759380;28;20050;-85
2022/03/05 05:44:15;;;;;;;1.65;1.10;;;;;;;-148.93;100.00;62180.91;20759341;28;20132;-85
2022/03/05 05:54:20;;;;;;;2.83;1.40;;;;;;;-148.93;100.00;62180.91;20774322;28;20557;-85
2022/03/05 06:04:23;;;;;;;1.23;1.08;;;;;;;-148.93;100.00;62180.91;20757435;28;20088;-85
2022/03/05 06:14:33;;;;;;;2.25;1.10;;;;;;;-148.93;100.00;62180.91;20781133;28;20045;-85
2022/03/05 06:24:38;;;;;;;2.10;1.20;;;;;;;-148.93;100.00;62180.91;20787882;28;20042;-85
2022/03/05 06:34:42;;;;;;;1.70;1.10;;;;;;;-148.93;100.00;62180.91;20786092;28;20390;-86
2022/03/05 06:44:56;;;;;;;1.85;1.48;;;;;;;-148.93;100.00;62180.91;20774922;28;20057;-81
2022/03/05 06:55:00;;;;;;;1.38;1.10;;;;;;;-148.93;100.00;62180.91;20705868;28;20087;-86
2022/03/05 07:05:15;;;;;;;2.53;1.35;;;;;;;-148.93;100.00;62180.91;20718167;28;20133;-86
2022/03/05 07:15:19;;;;;;;1.77;1.08;;;;;;;-148.93;100.00;62180.91;20717562;28;20396;-87
2022/03/05 07:25:24;;;;;;;1.57;1.27;;;;;;;-148.93;100.00;62180.91;20732379;28;20046;-83
2022/03/05 07:35:27;;;;;;;2.03;1.20;;;;;;;-148.93;100.00;62180.91;20731622;28;20064;-85
2022/03/05 07:45:30;;;;;;;1.88;1.35;;;;;;;-148.93;100.00;62180.91;20747368;28;20088;-84
2022/03/05 07:55:36;;;;;;;2.53;1.37;;;;;;;-148.93;100.00;62180.91;20730258;28;20034;-85
2022/03/05 08:05:41;;;;;;;1.37;1.20;;;;;;;-148.93;100.00;62180.91;20729381;28;20133;-85
2022/03/05 08:15:45;;;;;;;1.40;1.08;;;;;;;-148.93;100.00;62180.91;20745551;28;20041;-87
2022/03/05 08:25:50;;;;;;;2.53;2.00;;;;;;;-148.93;100.00;62180.91;20728682;28;20048;-85
2022/03/05 08:35:53;;;;;;;2.85;2.20;;;;;;;-148.93;100.00;62180.91;20657101;28;20395;-87
2022/03/05 08:45:56;;;;;;;5.65;2.40;;;;;;;-148.93;100.00;62180.91;20646256;28;20043;-84
2022/03/05 08:56:01;;;;;;;4.25;1.90;;;;;;;-148.93;100.00;62180.91;20661399;28;20153;-85
2022/03/05 09:06:08;;;;;;;2.63;1.50;;;;;;;-148.93;100.00;62180.91;20661397;28;20049;-84
2022/03/05 09:16:13;;;;;;;2.43;1.83;;;;;;;-148.93;100.00;62180.91;20644351;28;20042;-83
2022/03/05 09:26:17;;;;;;;2.43;1.57;;;;;;;-148.93;100.00;62180.91;20644438;28;20137;-84
2022/03/05 09:36:20;;;;;;;2.08;1.65;;;;;;;-148.93;100.00;62180.91;20627864;28;20516;-84
2022/03/05 09:46:26;;;;;;;2.58;2.15;;;;;;;-148.93;100.00;62180.91;20648986;28;20065;-84
2022/03/05 09:56:29;;;;;;;2.40;1.90;;;;;;;-148.93;100.00;62180.91;20658468;28;20507;-84
2022/03/05 10:06:39;;;;;;;2.22;1.60;;;;;;;-148.93;100.00;62180.91;20657937;28;20046;-84
2022/03/05 10:16:43;;;;;;;2.80;1.85;;;;;;;-148.93;100.00;62180.91;20657331;28;20073;-83
2022/03/05 10:26:54;;;;;;;2.38;1.80;;;;;;;-148.93;100.00;62180.91;20656663;28;20049;-84
2022/03/05 10:36:59;;;;;;;3.03;1.65;;;;;;;-148.93;100.00;62180.91;20672055;28;20057;-84
2022/03/05 10:47:04;;;;;;;2.45;1.73;;;;;;;-148.93;100.00;62180.91;20655277;28;20369;-84
2022/03/05 10:57:16;;;;;;;2.55;1.85;;;;;;;-148.93;100.00;62180.91;20653432;28;20070;-84
2022/03/05 11:07:23;;;;;;;2.72;1.90;;;;;;;-148.93;100.00;62180.91;20669796;28;20062;-85
2022/03/05 11:17:28;;;;;;;3.45;2.17;;;;;;;-148.93;100.00;62180.91;20636302;28;20046;-84
2022/03/05 11:27:32;;;;;;;2.95;2.20;;;;;;;-148.93;100.00;62180.91;20636564;28;20053;-80
2022/03/05 11:37:36;;;;;;;2.75;2.00;;;;;;;-148.93;100.00;62180.91;20651325;28;20050;-84
2022/03/05 11:47:38;;;;;;;3.17;2.13;;;;;;;-148.93;100.00;62180.91;20649913;28;20034;-84
2022/03/05 11:57:42;;;;;;;3.38;2.25;;;;;;;-148.93;100.00;62180.91;20665894;28;20061;-83
2022/03/05 12:07:45;;;;;;;3.47;2.17;;;;;;;-148.93;100.00;62180.91;20665492;28;20505;-84
2022/03/05 12:17:48;;;;;;;4.03;2.40;;;;;;;-148.93;100.00;62180.91;20647708;28;20572;-84
2022/03/05 12:27:53;;;;;;;3.30;2.38;;;;;;;-148.93;100.00;62180.91;20647570;28;20039;-83
2022/03/05 12:37:56;;;;;;;3.45;2.33;;;;;;;-148.93;100.00;62180.91;20645985;28;20058;-84
2022/03/05 12:48:07;;;;;;;3.95;2.67;;;;;;;-148.93;100.00;62180.91;20646252;28;20194;-85
2022/03/05 12:58:16;;;;;;;3.75;2.53;;;;;;;-148.93;100.00;62180.91;20645753;28;20046;-83
2022/03/05 13:08:19;;;;;;;3.72;2.50;;;;;;;-148.93;100.00;62180.91;20645405;28;20082;-84
2022/03/05 13:18:22;;;;;;;4.30;2.38;;;;;;;-148.93;100.00;62180.91;20662020;28;20084;-84
2022/03/05 13:28:26;;;;;;;3.67;2.50;;;;;;;-148.93;100.00;62180.91;20645096;28;20097;-84
2022/03/05 13:38:31;;;;;;;4.45;2.80;;;;;;;-148.93;100.00;62180.91;20677086;28;20050;-84
2022/03/05 13:48:49;;;;;;;4.40;2.63;;;;;;;-148.93;100.00;62180.91;20659697;28;20075;-84
2022/03/05 13:58:59;;;;;;;4.15;2.92;;;;;;;-148.93;100.00;62180.91;20658923;28;20053;-84
2022/03/05 14:09:07;;;;;;;4.37;3.10;;;;;;;-148.93;100.00;62180.91;20674398;28;20038;-84
2022/03/05 14:19:29;;;;;;;4.57;3.30;;;;;;;-148.93;100.00;62180.91;20657435;28;20042;-83
2022/03/05 14:29:36;;;;;;;3.97;2.88;;;;;;;-148.93;100.00;62180.91;20640125;28;20046;-84
2022/03/05 14:39:41;;;;;;;4.70;3.10;;;;;;;-148.93;100.00;62180.91;20671575;28;20059;-84
2022/03/05 14:49:52;;;;;;;4.40;2.95;;;;;;;-148.93;100.00;62180.91;20639643;28;20373;-83
2022/03/05 14:59:58;;;;;;;3.42;2.63;;;;;;;-148.93;100.00;62180.91;20653544;28;20042;-83
2022/03/05 15:10:03;;;;;;;;;;;;;;;-148.93;100.00;62180.91;20654581;28;20443;-84
2022/03/05 15:20:07;;;;;;;3.95;2.88;;;;;;;-148.93;100.00;62180.91;20652791;28;19922;-83
2022/03/05 15:30:09;;;;;;;5.50;3.25;;;;;;;-148.93;100.00;62180.91;20651623;28;20038;-83
2022/03/05 15:40:14;;;;;;;4.82;3.30;;;;;;;-148.93;100.00;62180.91;20651254;28;20046;-83
2022/03/05 15:50:18;;;;;;;4.28;2.85;;;;;;;-148.93;100.00;62180.91;20666345;28;20069;-83
2022/03/05 16:00:22;;;;;;;3.78;2.90;;;;;;;-148.93;100.00;62180.91;20649697;28;20116;-83
2022/03/05 16:10:34;;;;;;;4.00;2.92;;;;;;;-148.93;100.00;62180.91;20647413;28;20074;-83
2022/03/05 16:20:39;;;;;;;4.05;2.78;;;;;;;-148.93;100.00;62180.91;20647855;28;20209;-83
2022/03/05 16:30:41;;;;;;;3.33;2.70;;;;;;;-148.93;100.00;62180.91;20631340;28;20046;-81
2022/03/05 16:40:43;;;;;;;3.78;2.78;;;;;;;-148.93;100.00;62180.91;20645936;28;20436;-82
2022/03/05 16:50:46;;;;;;;3.08;2.28;;;;;;;-148.93;100.00;62180.91;20630290;28;20062;-82
2022/03/05 17:00:49;;;;;;;3.47;2.50;;;;;;;-148.93;100.00;62180.91;20628569;28;20038;-83
2022/03/05 17:10:53;;;;;;;4.22;2.72;;;;;;;-148.93;100.00;62180.91;20645137;28;20073;-83
2022/03/05 17:20:56;;;;;;;3.83;2.85;;;;;;;-148.93;100.00;62180.91;20661339;28;20038;-83
2022/03/05 17:30:59;;;;;;;3.42;2.60;;;;;;;-148.93;100.00;62180.91;20644548;28;20081;-83
2022/03/05 17:41:03;;;;;;;4.47;2.85;;;;;;;-148.93;100.00;62180.91;20654867;28;20101;-83
2022/03/05 17:51:06;;;;;;;3.50;2.47;;;;;;;-148.93;100.00;62180.91;20643981;28;20042;-83
2022/03/05 18:01:16;;;;;;;3.33;2.42;;;;;;;-148.93;100.00;62180.91;20660217;28;20093;-81
2022/03/05 18:11:25;;;;;;;3.47;2.78;;;;;;;-148.93;100.00;62180.91;20654051;28;20129;-83
2022/03/05 18:21:28;;;;;;;3.47;2.65;;;;;;;-148.93;100.00;62180.91;20656959;28;20042;-83
2022/03/05 18:31:39;;;;;;;2.95;2.30;;;;;;;-148.93;100.00;62180.91;20656006;28;20052;-82
2022/03/05 18:41:42;;;;;;;3.13;2.20;;;;;;;-148.93;100.00;62180.91;20654312;28;20054;-82
2022/03/05 18:51:47;;;;;;;3.10;2.28;;;;;;;-148.93;100.00;62180.91;20638828;28;20142;-83
2022/03/05 19:01:50;;;;;;;2.92;2.20;;;;;;;-148.93;100.00;62180.91;20669299;28;20046;-83
2022/03/05 19:11:53;;;;;;;2.95;2.33;;;;;;;-148.93;100.00;62180.91;20653411;28;20108;-83
2022/03/05 19:21:56;;;;;;;3.25;2.50;;;;;;;-148.93;100.00;62180.91;20651633;28;20038;-83
2022/03/05 19:32:02;;;;;;;2.92;1.83;;;;;;;-148.93;100.00;62180.91;20651360;28;20178;-83
2022/03/05 19:42:07;;;;;;;2.87;2.23;;;;;;;-148.93;100.00;62180.91;20650893;28;20433;-83
2022/03/05 19:52:13;;;;;;;2.78;2.50;;;;;;;-148.93;100.00;62180.91;20665893;28;20050;-82
2022/03/05 20:02:18;;;;;;;3.33;2.28;;;;;;;-148.93;100.00;62180.91;20665429;28;20074;-83
2022/03/05 20:12:24;;;;;;;3.13;2.47;;;;;;;-148.93;100.00;62180.91;20632679;28;20391;-82
2022/03/05 20:22:27;;;;;;;2.80;2.13;;;;;;;-148.93;100.00;62180.91;20631842;28;20038;-83
2022/03/05 20:32:34;;;;;;;3.25;2.03;;;;;;;-148.93;100.00;62180.91;20645696;28;20429;-82
2022/03/05 20:42:37;;;;;;;3.08;2.15;;;;;;;-148.93;100.00;62180.91;20630335;28;20042;-83
2022/03/05 20:52:42;;;;;;;2.95;2.20;;;;;;;-148.93;100.00;62180.91;20646430;28;20399;-83
2022/03/05 21:02:44;;;;;;;2.35;1.92;;;;;;;-148.93;100.00;62180.91;20662122;28;20130;-83
2022/03/05 21:13:05;;;;;;;2.50;1.73;;;;;;;-148.93;100.00;62180.91;20629572;28;20046;-83
2022/03/05 21:23:08;;;;;;;3.60;2.10;;;;;;;-148.93;100.00;62180.91;20628715;28;20069;-83
2022/03/05 21:33:13;;;;;;;2.58;2.17;;;;;;;-148.93;100.00;62180.91;20628649;28;20068;-82
2022/03/05 21:43:19;;;;;;;2.50;2.00;;;;;;;-148.93;100.00;62180.91;20666215;28;20049;-83
2022/03/05 21:53:24;;;;;;;3.25;2.28;;;;;;;-148.93;100.00;62180.91;20661336;28;20038;-82
2022/03/05 22:03:27;;;;;;;2.88;2.30;;;;;;;-148.93;100.00;62180.91;20658826;28;20038;-82
2022/03/05 22:13:32;;;;;;;2.72;2.10;;;;;;;-148.93;100.00;62180.91;20675824;28;20500;-81
2022/03/05 22:23:36;;;;;;;3.20;1.98;;;;;;;-148.93;100.00;62180.91;20676476;28;20046;-82
2022/03/05 22:33:42;;;;;;;3.30;2.33;;;;;;;-148.93;100.00;62180.91;20659716;28;20042;-81
2022/03/05 22:43:48;;;;;;;2.20;1.90;;;;;;;-148.93;100.00;62180.91;20674755;28;20054;-81
2022/03/05 22:53:51;;;;;;;2.28;2.08;;;;;;;-148.93;100.00;62180.91;20671930;28;20042;-80
2022/03/05 23:14:19;;;;;;;2.30;1.88;;;;;;;-148.93;100.00;62180.91;20653821;28;20046;-81
2022/03/05 23:24:22;;;;;;;2.70;2.00;;;;;;;-148.93;100.00;62180.91;20671888;28;20469;-81
2022/03/05 23:34:25;;;;;;;1.73;1.63;;;;;;;-148.93;100.00;62180.91;20654636;28;20132;-81
2022/03/05 23:44:30;;;;;;;2.47;2.00;;;;;;;-148.93;100.00;62180.91;20653717;28;20448;-80
2022/03/05 23:54:33;;;;;;;2.42;1.85;;;;;;;-148.93;100.00;62180.91;20669316;28;20043;-81
